createdAt,value
2023-11-17T00:00:13.675Z,1.20
2023-11-17T00:02:41.674Z,1.07
2023-11-17T00:05:08.975Z,1.47
2023-11-17T00:07:36.012Z,1.20
2023-11-17T00:10:03.823Z,1.23
2023-11-17T00:12:30.979Z,1.50
2023-11-17T00:14:57.882Z,1.67
2023-11-17T00:17:25.058Z,1.50
2023-11-17T00:19:52.506Z,1.70
2023-11-17T00:22:21.625Z,1.13
2023-11-17T00:24:48.792Z,1.30
2023-11-17T00:27:16.088Z,1.63
2023-11-17T00:29:43.069Z,1.30
2023-11-17T00:32:10.026Z,1.60
2023-11-17T00:34:37.107Z,1.57
2023-11-17T00:37:08.887Z,1.37
2023-11-17T00:39:38.178Z,1.50
2023-11-17T00:42:05.389Z,1.70
2023-11-17T00:44:32.526Z,1.53
2023-11-17T00:47:00.750Z,1.27
2023-11-17T00:49:28.096Z,1.47
2023-11-17T00:51:55.409Z,1.37
2023-11-17T00:54:27.307Z,1.33
2023-11-17T00:56:55.785Z,1.30
2023-11-17T00:59:23.412Z,1.30
2023-11-17T01:01:50.631Z,1.40
2023-11-17T01:04:18.359Z,1.30
2023-11-17T01:06:45.795Z,1.40
2023-11-17T01:09:13.626Z,1.30
2023-11-17T01:11:40.993Z,1.40
2023-11-17T01:14:09.821Z,1.33
2023-11-17T01:16:37.106Z,1.13
2023-11-17T01:19:04.275Z,1.47
2023-11-17T01:21:32.443Z,1.50
2023-11-17T01:24:02.570Z,1.60
2023-11-17T01:26:30.935Z,1.27
2023-11-17T01:28:58.198Z,1.40
2023-11-17T01:31:25.693Z,1.40
2023-11-17T01:33:52.661Z,2.07
2023-11-17T01:36:21.519Z,2.17
2023-11-17T01:38:53.275Z,1.23
2023-11-17T01:41:22.547Z,1.40
2023-11-17T01:43:49.895Z,1.40
2023-11-17T01:46:18.952Z,1.57
2023-11-17T01:48:45.942Z,1.30
2023-11-17T01:51:13.638Z,1.47
2023-11-17T01:53:41.258Z,1.40
2023-11-17T01:56:08.419Z,1.70
2023-11-17T01:58:35.517Z,1.40
2023-11-17T02:01:02.899Z,1.37
2023-11-17T02:03:30.534Z,1.17
2023-11-17T02:06:43.592Z,1.60
2023-11-17T02:09:35.802Z,1.53
2023-11-17T02:12:28.399Z,1.50
2023-11-17T02:15:02.254Z,1.63
2023-11-17T02:17:30.333Z,1.50
2023-11-17T02:20:13.193Z,0.93
2023-11-17T02:22:49.098Z,1.50
2023-11-17T02:25:34.065Z,1.50
2023-11-17T02:28:21.660Z,1.70
2023-11-17T02:30:57.319Z,1.80
2023-11-17T02:33:28.521Z,1.47
2023-11-17T02:35:58.538Z,1.27
2023-11-17T02:38:25.499Z,1.20
2023-11-17T02:40:57.432Z,1.80
2023-11-17T02:43:30.727Z,1.80
2023-11-17T02:46:01.702Z,1.57
2023-11-17T02:48:30.922Z,1.93
2023-11-17T02:51:19.745Z,1.83
2023-11-17T02:53:51.096Z,1.60
2023-11-17T02:56:22.959Z,1.43
2023-11-17T02:58:55.563Z,1.60
2023-11-17T03:01:24.785Z,1.67
2023-11-17T03:03:52.379Z,1.63
2023-11-17T03:06:19.369Z,1.53
2023-11-17T03:08:48.896Z,1.50
2023-11-17T03:11:22.195Z,1.97
2023-11-17T03:13:52.498Z,2.20
2023-11-17T03:16:25.114Z,1.40
2023-11-17T03:18:53.646Z,2.30
2023-11-17T03:21:24.463Z,2.20
2023-11-17T03:23:52.034Z,1.90
2023-11-17T03:26:20.427Z,1.47
2023-11-17T03:28:47.357Z,1.53
2023-11-17T03:31:15.657Z,1.77
2023-11-17T03:33:44.862Z,1.20
2023-11-17T03:36:20.432Z,1.80
2023-11-17T03:38:47.762Z,1.70
2023-11-17T03:41:19.632Z,1.30
2023-11-17T03:43:46.844Z,1.20
2023-11-17T03:46:14.679Z,1.10
2023-11-17T03:48:41.691Z,1.70
2023-11-17T03:51:09.798Z,1.67
2023-11-17T03:53:37.128Z,1.53
2023-11-17T03:56:05.216Z,1.60
2023-11-17T03:58:32.150Z,1.87
2023-11-17T04:00:59.137Z,1.50
2023-11-17T04:03:26.132Z,1.50
2023-11-17T04:05:54.505Z,1.57
2023-11-17T04:08:21.475Z,1.43
2023-11-17T04:10:48.434Z,1.40
2023-11-17T04:13:15.674Z,1.70
2023-11-17T04:15:42.616Z,1.40
2023-11-17T04:18:11.264Z,1.50
2023-11-17T04:20:38.201Z,1.83
2023-11-17T04:23:05.136Z,1.40
2023-11-17T04:25:32.081Z,1.40
2023-11-17T04:27:59.451Z,1.40
2023-11-17T04:30:26.615Z,2.23
2023-11-17T04:32:53.608Z,1.40
2023-11-17T04:35:20.570Z,1.13
2023-11-17T04:37:47.693Z,1.27
2023-11-17T04:40:17.233Z,1.67
2023-11-17T04:42:44.869Z,1.63
2023-11-17T04:45:11.833Z,1.73
2023-11-17T04:47:38.828Z,1.63
2023-11-17T04:50:10.072Z,1.83
2023-11-17T04:52:37.233Z,1.47
2023-11-17T04:55:06.838Z,1.60
2023-11-17T04:57:35.519Z,1.37
2023-11-17T05:00:05.377Z,1.73
2023-11-17T05:02:34.296Z,1.67
2023-11-17T05:05:01.956Z,1.60
2023-11-17T05:07:29.034Z,1.60
2023-11-17T05:09:56.129Z,1.83
2023-11-17T05:12:23.325Z,1.43
2023-11-17T05:14:51.273Z,1.80
2023-11-17T05:17:18.302Z,2.07
2023-11-17T05:19:46.605Z,1.83
2023-11-17T05:22:13.746Z,1.77
2023-11-17T05:24:40.692Z,2.17
2023-11-17T05:27:07.998Z,2.47
2023-11-17T05:29:34.965Z,1.80
2023-11-17T05:32:02.072Z,1.37
2023-11-17T05:34:29.828Z,1.30
2023-11-17T05:36:56.815Z,1.57
2023-11-17T05:39:24.799Z,1.50
2023-11-17T05:41:53.001Z,1.40
2023-11-17T05:44:20.283Z,1.43
2023-11-17T05:46:47.386Z,1.53
2023-11-17T05:49:14.449Z,1.37
2023-11-17T05:51:41.504Z,1.17
2023-11-17T05:54:08.404Z,1.30
2023-11-17T05:56:35.320Z,1.43
2023-11-17T05:59:02.260Z,1.47
2023-11-17T06:01:30.513Z,1.50
2023-11-17T06:03:57.799Z,1.30
2023-11-17T06:06:24.814Z,1.30
2023-11-17T06:08:51.715Z,1.37
2023-11-17T06:11:26.142Z,1.53
2023-11-17T06:13:53.058Z,1.20
2023-11-17T06:16:22.822Z,1.23
2023-11-17T06:18:50.992Z,1.50
2023-11-17T06:21:18.023Z,1.87
2023-11-17T06:23:45.111Z,1.30
2023-11-17T06:26:12.059Z,1.30
2023-11-17T06:28:39.384Z,1.50
2023-11-17T06:31:07.596Z,1.17
2023-11-17T06:33:34.946Z,1.40
2023-11-17T06:36:04.870Z,1.30
2023-11-17T06:38:33.039Z,1.23
2023-11-17T06:41:00.645Z,1.20
2023-11-17T06:43:28.677Z,1.27
2023-11-17T06:45:55.696Z,1.17
2023-11-17T06:48:24.274Z,1.20
2023-11-17T06:50:51.224Z,1.40
2023-11-17T06:53:20.116Z,1.10
2023-11-17T06:55:47.072Z,1.13
2023-11-17T06:58:14.040Z,1.30
2023-11-17T07:00:41.949Z,1.07
2023-11-17T07:03:08.912Z,1.07
2023-11-17T07:05:36.081Z,1.03
2023-11-17T07:08:03.041Z,1.00
2023-11-17T07:10:30.428Z,1.03
2023-11-17T07:12:57.641Z,1.13
2023-11-17T07:15:26.052Z,1.07
2023-11-17T07:17:55.013Z,0.97
2023-11-17T07:20:23.358Z,1.00
2023-11-17T07:22:50.502Z,1.00
2023-11-17T07:25:18.326Z,1.20
2023-11-17T07:27:45.699Z,1.47
2023-11-17T07:30:15.854Z,0.97
2023-11-17T07:32:46.392Z,0.90
2023-11-17T07:35:13.430Z,1.17
2023-11-17T07:37:40.411Z,1.43
2023-11-17T07:40:10.419Z,1.10
2023-11-17T07:42:40.630Z,1.20
2023-11-17T07:45:08.840Z,1.37
2023-11-17T07:47:37.761Z,2.27
2023-11-17T07:50:08.403Z,1.10
2023-11-17T07:52:36.158Z,1.50
2023-11-17T07:55:03.602Z,1.30
2023-11-17T07:57:31.309Z,1.50
2023-11-17T07:59:59.048Z,1.30
2023-11-17T08:02:25.978Z,1.10
2023-11-17T08:04:52.961Z,1.00
2023-11-17T08:07:19.984Z,1.27
2023-11-17T08:09:47.020Z,1.20
2023-11-17T08:12:14.688Z,1.17
2023-11-17T08:14:41.608Z,1.07
2023-11-17T08:17:08.858Z,0.80
2023-11-17T08:19:36.496Z,1.20
2023-11-17T08:22:04.865Z,0.73
2023-11-17T08:24:32.447Z,0.90
2023-11-17T08:26:59.386Z,1.00
2023-11-17T08:29:27.108Z,1.00
2023-11-17T08:31:55.705Z,1.10
2023-11-17T08:34:23.090Z,0.90
2023-11-17T08:36:50.612Z,0.90
2023-11-17T08:39:27.193Z,0.90
2023-11-17T08:41:56.143Z,0.90
2023-11-17T08:44:24.116Z,1.10
2023-11-17T08:46:52.374Z,0.90
2023-11-17T08:49:19.593Z,0.83
2023-11-17T08:51:48.229Z,0.70
2023-11-17T08:54:16.197Z,1.00
2023-11-17T08:56:44.225Z,1.00
2023-11-17T08:59:11.433Z,0.60
2023-11-17T09:01:38.705Z,1.43
2023-11-17T09:04:05.891Z,1.10
2023-11-17T09:06:34.702Z,0.70
2023-11-17T09:09:16.086Z,1.17
2023-11-17T09:11:51.081Z,0.90
2023-11-17T09:14:18.700Z,1.00
2023-11-17T09:16:49.817Z,0.93
2023-11-17T09:19:17.584Z,1.10
2023-11-17T09:21:44.681Z,1.13
2023-11-17T09:24:11.605Z,1.00
2023-11-17T09:26:38.489Z,1.20
2023-11-17T09:29:05.418Z,1.10
2023-11-17T09:31:32.623Z,1.00
2023-11-17T09:33:59.683Z,0.73
2023-11-17T09:36:27.287Z,0.80
2023-11-17T09:38:56.205Z,1.13
2023-11-17T09:41:24.325Z,0.90
2023-11-17T09:43:58.866Z,0.93
2023-11-17T09:46:29.101Z,0.93
2023-11-17T09:49:02.045Z,1.10
2023-11-17T09:51:29.678Z,0.83
2023-11-17T09:53:59.243Z,0.83
2023-11-17T09:56:27.569Z,0.77
2023-11-17T09:58:55.080Z,0.70
2023-11-17T10:01:28.882Z,0.90
2023-11-17T10:04:00.360Z,0.97
2023-11-17T10:06:29.683Z,0.87
2023-11-17T10:08:59.255Z,0.80
2023-11-17T10:11:27.375Z,0.93
2023-11-17T10:13:57.602Z,0.90
2023-11-17T10:16:25.063Z,1.00
2023-11-17T10:18:53.294Z,1.07
2023-11-17T10:21:20.538Z,0.80
2023-11-17T10:23:52.172Z,1.20
2023-11-17T10:26:21.187Z,1.33
2023-11-17T10:28:48.807Z,1.00
2023-11-17T10:31:17.860Z,1.40
2023-11-17T10:33:46.740Z,2.07
2023-11-17T10:36:17.268Z,2.00
2023-11-17T10:38:47.152Z,2.37
2023-11-17T10:41:31.247Z,2.10
2023-11-17T10:44:00.228Z,2.33
2023-11-17T10:46:37.188Z,2.37
2023-11-17T10:49:06.215Z,2.50
2023-11-17T10:51:35.761Z,2.83
2023-11-17T10:54:07.030Z,2.10
2023-11-17T10:56:35.753Z,1.90
2023-11-17T10:59:04.024Z,1.30
2023-11-17T11:01:32.772Z,1.80
2023-11-17T11:04:00.660Z,1.20
2023-11-17T11:06:28.626Z,1.20
2023-11-17T11:08:59.446Z,1.40
2023-11-17T11:11:27.868Z,1.70
2023-11-17T11:13:55.998Z,1.77
2023-11-17T11:16:25.545Z,2.73
2023-11-17T11:18:59.434Z,2.20
2023-11-17T11:21:31.356Z,1.87
2023-11-17T11:24:02.223Z,1.73
2023-11-17T11:26:30.969Z,2.40
2023-11-17T11:29:00.116Z,1.70
2023-11-17T11:31:27.339Z,1.70
2023-11-17T11:33:54.342Z,1.30
2023-11-17T11:36:21.391Z,1.27
2023-11-17T11:38:48.846Z,1.70
2023-11-17T11:41:18.478Z,1.30
2023-11-17T11:43:46.822Z,1.83
2023-11-17T11:46:19.382Z,1.60
2023-11-17T11:48:54.036Z,1.80
2023-11-17T11:51:24.745Z,1.80
2023-11-17T11:54:08.665Z,1.87
2023-11-17T11:56:41.540Z,1.77
2023-11-17T11:59:09.319Z,2.27
2023-11-17T12:01:37.573Z,2.57
2023-11-17T12:04:07.353Z,1.93
2023-11-17T12:06:39.588Z,2.17
2023-11-17T12:09:21.101Z,1.97
2023-11-17T12:11:52.939Z,2.43
2023-11-17T12:14:27.620Z,2.17
2023-11-17T12:16:56.928Z,2.10
2023-11-17T12:19:28.771Z,5.53
2023-11-17T12:21:59.881Z,2.40
2023-11-17T12:24:28.188Z,2.00
2023-11-17T12:26:56.990Z,2.00
2023-11-17T12:29:33.304Z,1.80
2023-11-17T12:32:09.957Z,1.70
2023-11-17T12:34:43.510Z,1.60
2023-11-17T12:37:11.527Z,1.73
2023-11-17T12:39:41.286Z,1.93
2023-11-17T12:42:21.966Z,1.93
2023-11-17T12:44:49.206Z,1.70
2023-11-17T12:47:25.454Z,1.90
2023-11-17T12:49:57.583Z,1.73
2023-11-17T12:52:24.917Z,1.63
2023-11-17T12:55:09.959Z,1.90
2023-11-17T12:57:38.233Z,1.60
2023-11-17T13:00:17.699Z,1.97
2023-11-17T13:02:45.218Z,2.03
2023-11-17T13:05:13.374Z,2.30
2023-11-17T13:07:40.812Z,1.50
2023-11-17T13:10:12.336Z,1.90
2023-11-17T13:12:40.651Z,1.53
2023-11-17T13:15:11.194Z,1.80
2023-11-17T13:17:38.272Z,1.97
2023-11-17T13:20:13.611Z,1.80
2023-11-17T13:22:44.392Z,2.00
2023-11-17T13:25:12.860Z,1.80
2023-11-17T13:27:46.258Z,2.30
2023-11-17T13:30:18.719Z,1.80
2023-11-17T13:33:02.848Z,1.77
2023-11-17T13:35:31.706Z,1.90
2023-11-17T13:38:05.258Z,1.83
2023-11-17T13:40:35.255Z,1.60
2023-11-17T13:43:12.707Z,1.70
2023-11-17T13:45:40.818Z,1.60
2023-11-17T13:48:11.784Z,1.20
2023-11-17T13:50:53.278Z,1.50
2023-11-17T13:53:23.127Z,1.40
2023-11-17T13:55:53.501Z,1.57
2023-11-17T13:58:21.396Z,1.37
2023-11-17T14:00:49.010Z,1.90
2023-11-17T14:03:16.055Z,1.20
2023-11-17T14:05:43.596Z,1.47
2023-11-17T14:08:13.423Z,1.00
2023-11-17T14:10:40.368Z,1.30
2023-11-17T14:13:07.333Z,1.40
2023-11-17T14:15:41.056Z,1.70
2023-11-17T14:18:12.666Z,1.20
2023-11-17T14:20:41.748Z,0.90
2023-11-17T14:23:08.680Z,1.30
2023-11-17T14:25:37.623Z,1.17
2023-11-17T14:28:04.806Z,0.90
2023-11-17T14:30:31.890Z,1.50
2023-11-17T14:33:00.249Z,1.10
2023-11-17T14:35:27.376Z,1.23
2023-11-17T14:37:54.311Z,1.20
2023-11-17T14:40:21.345Z,1.10
2023-11-17T14:42:48.309Z,1.67
2023-11-17T14:45:17.491Z,1.10
2023-11-17T14:47:47.465Z,1.40
2023-11-17T14:50:15.387Z,0.87
2023-11-17T14:52:44.099Z,1.50
2023-11-17T14:55:11.977Z,1.20
2023-11-17T14:57:39.871Z,1.30
2023-11-17T15:00:20.986Z,1.40
2023-11-17T15:02:49.398Z,1.70
2023-11-17T15:05:22.269Z,1.47
2023-11-17T15:07:50.421Z,1.20
2023-11-17T15:10:19.654Z,1.50
2023-11-17T15:12:48.575Z,1.80
2023-11-17T15:15:30.900Z,1.63
2023-11-17T15:17:59.778Z,1.20
2023-11-17T15:20:29.600Z,2.03
2023-11-17T15:22:57.019Z,1.50
2023-11-17T15:25:32.726Z,1.37
2023-11-17T15:27:59.633Z,1.87
2023-11-17T15:30:28.165Z,1.67
2023-11-17T15:32:55.353Z,1.40
2023-11-17T15:35:24.922Z,1.67
2023-11-17T15:37:52.205Z,1.40
2023-11-17T15:40:22.859Z,1.60
2023-11-17T15:42:49.991Z,1.80
2023-11-17T15:45:23.919Z,2.20
2023-11-17T15:47:50.946Z,2.00
2023-11-17T15:50:20.037Z,2.30
2023-11-17T15:52:47.085Z,1.90
2023-11-17T15:55:17.422Z,2.33
2023-11-17T15:57:45.934Z,2.00
2023-11-17T16:00:24.796Z,2.00
2023-11-17T16:02:53.222Z,1.60
2023-11-17T16:05:22.711Z,1.40
2023-11-17T16:07:52.277Z,2.00
2023-11-17T16:10:22.481Z,2.00
2023-11-17T16:12:54.911Z,2.13
2023-11-17T16:15:23.040Z,1.77
2023-11-17T16:17:55.450Z,1.90
2023-11-17T16:20:27.157Z,2.50
2023-11-17T16:22:55.040Z,2.10
2023-11-17T16:25:22.577Z,2.30
2023-11-17T16:27:50.954Z,2.40
2023-11-17T16:30:22.056Z,2.17
2023-11-17T16:32:56.026Z,2.30
2023-11-17T16:35:28.532Z,2.27
2023-11-17T16:37:55.958Z,2.33
2023-11-17T16:40:28.799Z,2.10
2023-11-17T16:43:08.791Z,2.37
2023-11-17T16:45:44.350Z,2.50
2023-11-17T16:48:11.501Z,2.70
2023-11-17T16:50:43.548Z,2.80
2023-11-17T16:53:15.317Z,2.97
2023-11-17T16:55:44.234Z,3.00
2023-11-17T16:58:13.232Z,2.83
2023-11-17T17:00:41.716Z,3.10
2023-11-17T17:03:09.021Z,2.70
2023-11-17T17:05:37.123Z,2.30
2023-11-17T17:08:07.977Z,2.90
2023-11-17T17:10:36.526Z,2.93
2023-11-17T17:13:04.544Z,2.37
2023-11-17T17:15:34.087Z,2.43
2023-11-17T17:18:08.144Z,2.10
2023-11-17T17:20:41.733Z,2.93
2023-11-17T17:23:13.784Z,3.23
2023-11-17T17:25:41.785Z,3.40
2023-11-17T17:28:13.910Z,3.60
2023-11-17T17:30:42.721Z,3.40
2023-11-17T17:33:11.913Z,3.70
2023-11-17T17:35:44.548Z,3.40
2023-11-17T17:38:13.178Z,3.70
2023-11-17T17:40:41.764Z,3.60
2023-11-17T17:43:10.877Z,4.30
2023-11-17T17:45:38.615Z,3.50
2023-11-17T17:48:08.566Z,3.37
2023-11-17T17:50:36.260Z,3.23
2023-11-17T17:53:03.280Z,3.07
2023-11-17T17:55:30.406Z,3.20
2023-11-17T17:57:58.015Z,3.40
2023-11-17T18:00:26.347Z,3.17
2023-11-17T18:02:59.392Z,3.47
2023-11-17T18:05:28.303Z,4.10
2023-11-17T18:07:56.108Z,3.87
2023-11-17T18:10:23.414Z,4.17
2023-11-17T18:12:52.021Z,3.97
2023-11-17T18:15:22.574Z,4.13
2023-11-17T18:17:53.133Z,4.20
2023-11-17T18:20:24.144Z,3.60
2023-11-17T18:22:53.448Z,3.50
2023-11-17T18:25:22.024Z,4.10
2023-11-17T18:27:50.805Z,4.00
2023-11-17T18:30:19.713Z,4.60
2023-11-17T18:32:47.476Z,3.80
2023-11-17T18:35:16.935Z,4.00
2023-11-17T18:37:49.134Z,4.03
2023-11-17T18:40:26.057Z,3.80
2023-11-17T18:42:53.838Z,4.50
2023-11-17T18:45:21.508Z,4.40
2023-11-17T18:47:49.272Z,6.77
2023-11-17T18:50:16.492Z,4.63
2023-11-17T18:52:44.130Z,5.70
2023-11-17T18:55:14.457Z,4.80
2023-11-17T18:57:41.929Z,5.10
2023-11-17T19:00:12.595Z,5.27
2023-11-17T19:02:40.759Z,6.30
2023-11-17T19:05:10.722Z,6.60
2023-11-17T19:07:38.596Z,6.03
2023-11-17T19:10:09.805Z,4.63
2023-11-17T19:12:36.933Z,4.80
2023-11-17T19:15:07.872Z,5.27
2023-11-17T19:17:39.273Z,6.83
2023-11-17T19:20:13.576Z,7.03
2023-11-17T19:22:41.746Z,7.83
2023-11-17T19:25:09.651Z,8.37
2023-11-17T19:27:37.846Z,5.80
2023-11-17T19:30:13.806Z,5.47
2023-11-17T19:32:46.832Z,4.33
2023-11-17T19:35:15.519Z,5.43
2023-11-17T19:37:43.963Z,6.40
2023-11-17T19:40:13.369Z,5.37
2023-11-17T19:42:42.921Z,4.90
2023-11-17T19:45:17.203Z,4.63
2023-11-17T19:47:48.023Z,3.60
2023-11-17T19:50:18.601Z,3.90
2023-11-17T19:52:48.252Z,4.00
2023-11-17T19:55:16.313Z,4.10
2023-11-17T19:57:48.219Z,4.13
2023-11-17T20:00:24.271Z,4.17
2023-11-17T20:02:52.755Z,4.57
2023-11-17T20:05:23.181Z,4.73
2023-11-17T20:07:51.067Z,4.70
2023-11-17T20:10:18.191Z,5.00
2023-11-17T20:12:46.165Z,5.07
2023-11-17T20:15:16.520Z,5.03
2023-11-17T20:17:55.225Z,4.93
2023-11-17T20:20:25.826Z,4.90
2023-11-17T20:22:53.052Z,4.57
2023-11-17T20:25:24.509Z,4.63
2023-11-17T20:27:52.633Z,4.53
2023-11-17T20:30:23.478Z,5.80
2023-11-17T20:32:53.730Z,5.80
2023-11-17T20:35:24.739Z,6.80
2023-11-17T20:37:52.710Z,6.20
2023-11-17T20:40:19.940Z,7.20
2023-11-17T20:42:48.767Z,5.90
2023-11-17T20:45:16.774Z,5.70
2023-11-17T20:47:45.576Z,5.63
2023-11-17T20:50:22.898Z,6.20
2023-11-17T20:52:52.415Z,5.77
2023-11-17T20:55:20.971Z,6.20
2023-11-17T20:57:50.547Z,5.30
2023-11-17T21:00:24.668Z,6.13
2023-11-17T21:02:57.353Z,5.40
2023-11-17T21:05:25.456Z,5.93
2023-11-17T21:07:54.818Z,5.10
2023-11-17T21:10:27.915Z,5.03
2023-11-17T21:12:56.526Z,5.90
2023-11-17T21:15:24.547Z,4.90
2023-11-17T21:17:54.646Z,5.47
2023-11-17T21:20:22.181Z,5.57
2023-11-17T21:22:50.033Z,6.10
2023-11-17T21:25:19.502Z,5.90
2023-11-17T21:27:48.541Z,5.30
2023-11-17T21:30:16.707Z,6.23
2023-11-17T21:32:48.513Z,6.40
2023-11-17T21:35:18.655Z,6.53
2023-11-17T21:37:46.350Z,6.87
2023-11-17T21:40:17.019Z,6.77
2023-11-17T21:42:45.949Z,7.10
2023-11-17T21:45:23.221Z,6.13
2023-11-17T21:47:57.333Z,6.40
2023-11-17T21:50:26.141Z,5.97
2023-11-17T21:52:56.553Z,5.50
2023-11-17T21:55:23.874Z,6.17
2023-11-17T21:57:50.870Z,6.40
2023-11-17T22:00:19.479Z,6.70
2023-11-17T22:02:49.474Z,6.40
2023-11-17T22:05:19.029Z,7.00
2023-11-17T22:07:48.456Z,6.47
2023-11-17T22:10:15.648Z,6.60
2023-11-17T22:12:46.530Z,5.00
2023-11-17T22:15:13.983Z,4.90
2023-11-17T22:17:44.046Z,4.07
2023-11-17T22:20:16.530Z,3.90
2023-11-17T22:22:45.591Z,3.70
2023-11-17T22:25:13.874Z,4.20
2023-11-17T22:27:44.547Z,4.40
2023-11-17T22:30:20.762Z,3.63
2023-11-17T22:32:49.515Z,4.50
2023-11-17T22:35:18.511Z,4.73
2023-11-17T22:37:54.598Z,6.27
2023-11-17T22:40:23.659Z,5.30
2023-11-17T22:42:52.606Z,4.60
2023-11-17T22:45:19.741Z,8.40
2023-11-17T22:47:47.584Z,11.57
2023-11-17T22:50:17.937Z,8.87
2023-11-17T22:52:46.209Z,8.80
2023-11-17T22:55:13.496Z,7.00
2023-11-17T22:57:40.981Z,7.07
2023-11-17T23:00:37.766Z,7.07
2023-11-17T23:03:08.582Z,4.17
2023-11-17T23:05:42.466Z,4.60
2023-11-17T23:08:12.763Z,3.07
2023-11-17T23:10:39.734Z,3.17
2023-11-17T23:13:08.179Z,3.10
2023-11-17T23:15:35.180Z,4.57
2023-11-17T23:18:02.697Z,6.40
2023-11-17T23:20:30.350Z,6.13
2023-11-17T23:22:58.145Z,5.27
2023-11-17T23:25:26.300Z,5.53
2023-11-17T23:27:53.579Z,6.13
2023-11-17T23:30:20.652Z,6.13
2023-11-17T23:32:48.494Z,5.47
2023-11-17T23:35:15.720Z,5.67
2023-11-17T23:37:42.686Z,5.37
2023-11-17T23:40:17.134Z,5.00
2023-11-17T23:42:48.908Z,4.80
2023-11-17T23:45:17.605Z,4.47
2023-11-17T23:47:44.862Z,5.20
2023-11-17T23:50:12.577Z,4.47
2023-11-17T23:52:39.541Z,4.87
2023-11-17T23:55:07.206Z,3.83
2023-11-17T23:57:34.158Z,4.17
